Time;durP1;ratioP1;P1;durP2;ratioP2;P2;SDS_P1;SDS_P2;PMS_P1;PMS_P2;Temp;Humidity;BMP_temperature;BMP_pressure;BME280_temperature;BME280_humidity;BME280_pressure;Samples;Min_cycle;Max_cycle;Signal;HPM_P1;HPM_P2
2023/07/25 00:00:35;;;;;;;4.63;4.13;;;;;;;29.03;50.66;100981.00;5093301;28;20020;-82
2023/07/25 00:03:01;;;;;;;4.38;3.97;;;;;;;28.88;50.83;100954.41;5091565;28;20500;-82
2023/07/25 00:05:26;;;;;;;4.10;3.70;;;;;;;28.96;50.83;100974.84;5090709;28;20412;-81
2023/07/25 00:07:52;;;;;;;4.32;3.92;;;;;;;28.69;50.77;100921.59;5091306;28;20028;-81
2023/07/25 00:10:18;;;;;;;5.75;3.90;;;;;;;28.94;50.73;100959.66;5093193;28;20024;-81
2023/07/25 00:12:44;;;;;;;4.15;3.75;;;;;;;29.01;50.84;100964.00;5091986;28;20455;-81
2023/07/25 00:15:10;;;;;;;4.00;3.60;;;;;;;28.88;50.85;100941.84;5093774;28;20020;-81
2023/07/25 00:17:36;;;;;;;4.07;3.63;;;;;;;28.98;51.01;100962.25;5091839;28;20030;-81
2023/07/25 00:20:02;;;;;;;5.00;3.92;;;;;;;28.72;50.90;100924.22;5092942;28;20028;-82
2023/07/25 00:22:27;;;;;;;5.10;3.80;;;;;;;28.94;51.06;100959.66;5098349;28;20051;-82
2023/07/25 00:24:53;;;;;;;4.32;3.72;;;;;;;28.94;50.98;100959.66;5097789;28;20451;-82
2023/07/25 00:27:19;;;;;;;4.15;3.75;;;;;;;28.88;50.95;100941.84;5091329;28;20035;-82
2023/07/25 00:29:44;;;;;;;4.30;3.90;;;;;;;28.91;50.94;100948.94;5093711;28;20040;-82
2023/07/25 00:32:10;;;;;;;4.28;3.88;;;;;;;28.84;51.16;100945.50;5096701;28;20031;-82
2023/07/25 00:34:35;;;;;;;4.15;3.78;;;;;;;28.90;51.05;100950.75;5093029;28;20761;-82
2023/07/25 00:37:01;;;;;;;5.57;4.38;;;;;;;28.92;51.15;100943.56;5099539;28;20104;-82
2023/07/25 00:39:27;;;;;;;4.30;3.80;;;;;;;28.87;51.23;100931.09;5091935;28;20073;-82
2023/07/25 00:41:52;;;;;;;4.57;4.00;;;;;;;28.81;51.22;100930.31;5094084;28;20446;-82
2023/07/25 00:44:18;;;;;;;4.82;4.07;;;;;;;28.89;51.23;100940.91;5099339;28;20035;-82
2023/07/25 00:46:44;;;;;;;5.10;4.15;;;;;;;28.79;51.00;100934.84;5096495;28;20036;-82
2023/07/25 00:49:10;;;;;;;5.22;3.75;;;;;;;28.86;51.08;100943.66;5091581;28;20036;-82
2023/07/25 00:51:37;;;;;;;5.70;3.95;;;;;;;28.81;51.25;100932.13;5093009;28;20031;-82
2023/07/25 00:54:03;;;;;;;4.00;3.60;;;;;;;28.84;51.16;100942.81;5095789;28;20052;-82
2023/07/25 00:56:29;;;;;;;5.18;4.00;;;;;;;28.87;51.12;100945.47;5102249;28;20933;-81
2023/07/25 00:58:55;;;;;;;4.30;3.90;;;;;;;28.82;51.25;100939.25;5091170;28;20024;-82
2023/07/25 01:01:22;;;;;;;4.47;3.88;;;;;;;28.84;51.46;100945.50;5093274;28;20478;-82
2023/07/25 01:03:48;;;;;;;4.03;3.63;;;;;;;28.83;51.16;100951.81;5092379;28;20024;-83
2023/07/25 01:06:15;;;;;;;4.70;3.97;;;;;;;28.75;51.19;100935.81;5098287;28;20402;-81
2023/07/25 01:08:51;;;;;;;4.55;3.80;;;;;;;28.80;51.27;100949.16;5091688;28;20056;-81
2023/07/25 01:11:17;;;;;;;4.75;3.90;;;;;;;28.82;51.34;100939.25;5093688;28;20038;-81
2023/07/25 01:13:43;;;;;;;4.60;3.85;;;;;;;28.78;51.29;100938.44;5095949;28;20028;-81
2023/07/25 01:16:10;;;;;;;4.20;3.80;;;;;;;28.80;51.41;100941.09;5089797;28;20032;-81
2023/07/25 01:18:36;;;;;;;4.57;3.38;;;;;;;28.63;51.32;100914.53;5089880;28;20036;-82
2023/07/25 01:21:03;;;;;;;4.35;3.95;;;;;;;28.19;51.28;100843.66;5089079;28;20020;-82
2023/07/25 01:23:29;;;;;;;5.00;4.10;;;;;;;28.75;51.45;100935.81;5092556;28;20033;-81
2023/07/25 01:25:55;;;;;;;4.72;4.00;;;;;;;28.71;51.12;100931.41;5096133;28;20027;-82
2023/07/25 01:28:20;;;;;;;5.25;4.22;;;;;;;28.79;51.28;100950.09;5103262;28;20023;-82
2023/07/25 01:30:46;;;;;;;4.60;3.90;;;;;;;28.78;51.19;100961.75;5092619;28;20024;-82
2023/07/25 01:33:12;;;;;;;5.70;4.05;;;;;;;28.75;51.34;100962.69;5090157;28;20036;-82
2023/07/25 01:35:37;;;;;;;8.43;3.90;;;;;;;28.72;51.24;100954.66;5094405;28;20035;-82
2023/07/25 01:38:03;;;;;;;6.53;4.03;;;;;;;28.61;51.26;100948.59;5101758;28;20481;-82
2023/07/25 01:40:28;;;;;;;6.20;4.05;;;;;;;28.68;51.35;100974.47;5093508;28;20770;-82
2023/07/25 01:42:54;;;;;;;4.35;3.95;;;;;;;28.71;51.46;100977.09;5090803;28;20031;-82
2023/07/25 01:45:20;;;;;;;5.00;4.03;;;;;;;28.62;51.55;100955.78;5090997;28;20587;-82
2023/07/25 01:47:45;;;;;;;4.13;3.72;;;;;;;28.52;51.53;100936.22;5105699;28;20113;-82
2023/07/25 01:50:11;;;;;;;4.47;4.00;;;;;;;28.48;51.38;100930.91;5090893;28;20523;-82
2023/07/25 01:52:37;;;;;;;5.10;4.10;;;;;;;28.59;51.59;100953.13;5091406;28;20035;-82
2023/07/25 01:55:02;;;;;;;4.93;3.63;;;;;;;28.61;51.46;100954.84;5100707;28;20066;-82
2023/07/25 01:57:28;;;;;;;4.30;3.90;;;;;;;28.67;51.46;100953.00;5107953;28;20032;-82
2023/07/25 01:59:54;;;;;;;4.70;3.78;;;;;;;28.59;51.35;100945.94;5103174;28;20028;-82
2023/07/25 02:02:19;;;;;;;4.53;3.63;;;;;;;28.69;51.50;100954.72;5095070;28;20031;-82
2023/07/25 02:04:46;;;;;;;4.50;4.10;;;;;;;28.66;51.54;100956.59;5094805;28;20119;-82
2023/07/25 02:07:12;;;;;;;4.40;3.70;;;;;;;28.67;51.59;100970.00;5091340;28;20035;-82
2023/07/25 02:09:37;;;;;;;4.82;4.07;;;;;;;28.42;51.42;100931.88;5097823;28;20073;-82
2023/07/25 02:12:03;;;;;;;6.05;4.50;;;;;;;28.67;51.55;100998.69;5091954;28;20040;-82
2023/07/25 02:14:29;;;;;;;5.00;3.88;;;;;;;28.66;51.42;100996.88;5093020;28;20059;-81
2023/07/25 02:16:54;;;;;;;5.85;3.97;;;;;;;28.64;51.51;100994.25;5098951;28;20084;-81
2023/07/25 02:19:20;;;;;;;5.15;4.00;;;;;;;28.59;51.73;100982.69;5092096;28;20031;-81
2023/07/25 02:21:46;;;;;;;4.00;3.58;;;;;;;28.63;51.64;100995.16;5102300;28;20492;-82
2023/07/25 02:24:11;;;;;;;5.65;3.75;;;;;;;28.52;51.66;100971.16;5091906;27;20039;-82
2023/07/25 02:26:38;;;;;;;6.38;4.30;;;;;;;28.57;51.47;100985.38;5091211;28;20035;-82
2023/07/25 02:29:03;;;;;;;4.97;4.18;;;;;;;28.55;51.54;100983.63;5087056;28;20672;-81
2023/07/25 02:31:29;;;;;;;4.85;3.85;;;;;;;28.57;51.63;100990.75;5089508;28;20027;-81
2023/07/25 02:33:55;;;;;;;4.40;3.88;;;;;;;28.50;51.61;100972.09;5089454;28;20501;-82
2023/07/25 02:36:20;;;;;;;5.80;4.40;;;;;;;28.57;51.55;100996.13;5089528;28;20527;-81
2023/07/25 02:38:46;;;;;;;4.45;3.85;;;;;;;28.35;51.69;100952.59;5093793;28;20020;-82
2023/07/25 02:41:12;;;;;;;5.22;4.30;;;;;;;28.55;51.46;100978.25;5089695;28;20467;-81
2023/07/25 02:43:37;;;;;;;4.63;3.88;;;;;;;28.57;51.86;100980.00;5090790;28;20020;-82
2023/07/25 02:46:03;;;;;;;4.20;3.80;;;;;;;28.56;51.71;100980.94;5073299;28;20477;-83
2023/07/25 02:48:28;;;;;;;5.20;4.05;;;;;;;28.55;51.63;100967.53;5090993;28;20496;-82
2023/07/25 02:50:54;;;;;;;4.50;4.10;;;;;;;28.51;51.74;100958.66;5088881;28;20070;-81
2023/07/25 02:53:21;;;;;;;5.13;4.00;;;;;;;28.41;51.77;100938.19;5102705;28;20101;-81
2023/07/25 02:55:46;;;;;;;4.40;3.83;;;;;;;28.48;51.53;100955.97;5091088;28;20055;-82
2023/07/25 02:58:12;;;;;;;4.28;3.88;;;;;;;28.23;51.68;100921.44;5090488;28;20050;-83
2023/07/25 03:00:38;;;;;;;4.80;4.20;;;;;;;28.51;51.71;100974.78;5090122;28;20033;-81
2023/07/25 03:03:04;;;;;;;4.07;3.67;;;;;;;28.48;51.71;100969.41;5089020;28;20039;-82
2023/07/25 03:05:29;;;;;;;5.57;4.03;;;;;;;28.45;51.76;100971.22;5088981;28;20119;-81
2023/07/25 03:07:57;;;;;;;5.63;4.22;;;;;;;28.46;51.86;100975.72;5090677;28;20093;-82
2023/07/25 03:10:23;;;;;;;4.10;3.70;;;;;;;28.38;51.76;100955.22;5092474;28;20615;-82
2023/07/25 03:12:48;;;;;;;6.40;4.55;;;;;;;28.49;51.69;100967.63;5094894;28;20051;-82
2023/07/25 03:15:14;;;;;;;4.07;3.67;;;;;;;28.45;51.65;100957.81;5100116;28;20408;-82
2023/07/25 03:17:40;;;;;;;4.47;3.70;;;;;;;28.46;51.80;100965.84;5092423;28;20516;-82
2023/07/25 03:20:07;;;;;;;4.88;3.97;;;;;;;28.38;51.96;100954.34;5087684;28;20024;-82
2023/07/25 03:22:32;;;;;;;5.70;4.05;;;;;;;28.30;51.92;100941.06;5105381;28;20039;-83
2023/07/25 03:24:58;;;;;;;4.03;3.67;;;;;;;28.42;51.62;100958.75;5092659;28;20024;-82
2023/07/25 03:27:24;;;;;;;4.68;3.83;;;;;;;28.35;51.77;100939.16;5091119;28;20036;-82
2023/07/25 03:29:50;;;;;;;4.72;3.60;;;;;;;28.33;51.62;100938.31;5091407;28;20044;-82
2023/07/25 03:32:16;;;;;;;4.47;3.90;;;;;;;28.30;51.75;100935.69;5093389;28;20028;-81
2023/07/25 03:34:41;;;;;;;4.63;4.00;;;;;;;28.43;51.77;100972.16;5093629;27;20020;-82
2023/07/25 03:37:07;;;;;;;4.40;3.83;;;;;;;28.43;51.53;100976.66;5105766;28;20030;-82
2023/07/25 03:39:33;;;;;;;4.22;3.80;;;;;;;28.37;51.69;100957.97;5098792;28;20038;-82
2023/07/25 03:41:58;;;;;;;3.67;3.33;;;;;;;28.15;51.63;100922.50;5099591;28;20027;-82
2023/07/25 03:44:28;;;;;;;4.28;3.88;;;;;;;28.32;51.98;100952.66;5104039;27;20036;-83
2023/07/25 03:46:54;;;;;;;4.40;3.97;;;;;;;28.27;51.96;100942.91;5096770;28;20444;-83
2023/07/25 03:49:19;;;;;;;4.22;3.55;;;;;;;28.25;52.11;100950.97;5102008;28;20032;-84
2023/07/25 03:51:45;;;;;;;5.55;4.15;;;;;;;28.28;51.92;100955.41;5107083;28;20020;-83
2023/07/25 03:54:11;;;;;;;4.35;3.95;;;;;;;28.21;52.04;100957.31;5102238;27;20039;-82
2023/07/25 03:56:36;;;;;;;5.20;3.88;;;;;;;28.23;51.93;100966.22;5101784;28;20020;-85
2023/07/25 03:59:02;;;;;;;6.03;4.15;;;;;;;28.21;51.80;100965.34;5108921;28;20614;-84
2023/07/25 04:01:28;;;;;;;4.72;3.95;;;;;;;28.19;51.99;100964.50;5103083;28;20024;-85
2023/07/25 04:03:54;;;;;;;5.03;3.72;;;;;;;28.21;52.01;100978.78;5098603;28;20496;-85
2023/07/25 04:06:19;;;;;;;4.95;4.20;;;;;;;28.11;52.26;100956.59;5103845;28;20116;-85
2023/07/25 04:08:45;;;;;;;4.07;3.67;;;;;;;28.06;52.25;100958.44;5096163;28;20039;-86
2023/07/25 04:11:13;;;;;;;4.95;3.92;;;;;;;28.31;52.00;101006.41;5096801;28;20193;-86
2023/07/25 04:13:39;;;;;;;4.80;3.90;;;;;;;28.19;52.01;100980.59;5096107;28;20030;-87
2023/07/25 04:16:05;;;;;;;5.60;3.95;;;;;;;28.18;52.09;100973.47;5092378;28;20123;-87
2023/07/25 04:18:31;;;;;;;5.75;4.00;;;;;;;28.17;52.00;100963.63;5099108;28;20529;-85
2023/07/25 04:20:56;;;;;;;6.25;4.30;;;;;;;28.18;52.14;100985.09;5099807;28;20019;-84
2023/07/25 04:23:22;;;;;;;4.43;3.95;;;;;;;28.15;52.15;100981.56;5100019;27;20047;-86
2023/07/25 04:25:48;;;;;;;5.10;4.13;;;;;;;28.20;52.27;100988.66;5092001;28;20024;-87
2023/07/25 04:28:14;;;;;;;4.78;4.28;;;;;;;27.97;51.98;100948.72;5105213;28;20503;-86
2023/07/25 04:30:39;;;;;;;4.38;3.85;;;;;;;28.16;52.24;100975.28;5093392;28;20032;-86
2023/07/25 04:33:06;;;;;;;4.57;3.78;;;;;;;27.99;52.15;100940.66;5093508;28;20495;-86
2023/07/25 04:35:31;;;;;;;5.45;4.40;;;;;;;28.16;52.02;100977.97;5092042;28;20024;-86
2023/07/25 04:37:57;;;;;;;4.63;4.20;;;;;;;28.22;52.34;100999.38;5093245;28;20546;-84
2023/07/25 04:40:23;;;;;;;4.65;4.15;;;;;;;28.04;52.26;100962.06;5100546;28;20034;-83
2023/07/25 04:42:48;;;;;;;5.03;4.10;;;;;;;28.22;52.32;100994.88;5106764;28;20412;-85
2023/07/25 04:45:14;;;;;;;5.35;3.72;;;;;;;28.08;51.94;100961.97;5102944;28;20024;-84
2023/07/25 04:47:40;;;;;;;5.63;3.97;;;;;;;28.18;52.28;100981.53;5103931;28;20063;-85
2023/07/25 04:50:05;;;;;;;4.15;3.75;;;;;;;28.21;52.11;100987.75;5089918;28;20097;-85
2023/07/25 04:52:31;;;;;;;5.28;3.97;;;;;;;28.18;52.30;100976.16;5092085;28;20028;-83
2023/07/25 04:54:58;;;;;;;5.47;4.63;;;;;;;28.14;52.26;100971.75;5092603;28;20417;-85
2023/07/25 04:57:25;;;;;;;5.03;4.47;;;;;;;28.11;52.20;100971.78;5091780;28;20035;-85
2023/07/25 04:59:52;;;;;;;6.95;4.70;;;;;;;28.02;52.26;100968.34;5091124;28;20020;-86
2023/07/25 05:02:19;;;;;;;5.72;4.13;;;;;;;27.95;52.15;100955.03;5095204;28;20110;-86
2023/07/25 05:04:44;;;;;;;5.28;4.38;;;;;;;28.13;52.33;100984.28;5090328;28;20632;-84
2023/07/25 05:07:10;;;;;;;5.28;4.40;;;;;;;27.93;52.38;100943.44;5106013;27;20092;-83
2023/07/25 05:09:36;;;;;;;5.72;4.38;;;;;;;28.09;52.24;100965.53;5101182;28;20500;-85
2023/07/25 05:12:04;;;;;;;4.72;4.25;;;;;;;28.07;52.32;100951.25;5097710;28;20081;-82
2023/07/25 05:14:30;;;;;;;4.32;3.92;;;;;;;28.12;52.48;100960.16;5101976;28;20032;-83
2023/07/25 05:16:56;;;;;;;6.05;4.70;;;;;;;28.15;52.43;100966.38;5103839;27;20024;-83
2023/07/25 05:19:23;;;;;;;4.85;4.07;;;;;;;28.00;52.17;100946.00;5095675;28;20050;-83
2023/07/25 05:21:49;;;;;;;4.82;4.32;;;;;;;28.12;52.02;100974.44;5102452;27;20172;-83
2023/07/25 05:24:15;;;;;;;4.57;3.97;;;;;;;28.17;52.31;100975.28;5096636;28;20027;-83
2023/07/25 05:26:41;;;;;;;5.10;4.60;;;;;;;28.16;52.17;100977.97;5097833;28;20515;-82
2023/07/25 05:29:07;;;;;;;4.75;4.20;;;;;;;27.93;51.90;100938.06;5091836;28;20044;-81
2023/07/25 05:31:33;;;;;;;4.63;4.20;;;;;;;28.14;51.79;100969.06;5094691;28;20039;-82
2023/07/25 05:33:59;;;;;;;4.22;3.80;;;;;;;28.18;51.93;100979.72;5096430;28;20036;-83
2023/07/25 05:36:24;;;;;;;4.45;4.03;;;;;;;28.15;52.18;100978.88;5097110;28;20035;-83
2023/07/25 05:38:50;;;;;;;4.75;4.10;;;;;;;28.04;51.94;100954.00;5092216;28;20489;-83
2023/07/25 05:41:16;;;;;;;4.90;4.40;;;;;;;28.14;52.43;100964.56;5071634;28;20052;-82
2023/07/25 05:43:42;;;;;;;5.50;4.43;;;;;;;27.88;52.31;100929.19;5097906;27;20031;-83
2023/07/25 05:46:08;;;;;;;5.28;4.68;;;;;;;28.05;52.41;100948.63;5092862;28;20027;-86
2023/07/25 05:48:34;;;;;;;5.28;3.85;;;;;;;27.89;52.21;100929.16;5089181;27;20069;-84
2023/07/25 05:51:11;;;;;;;5.03;4.13;;;;;;;28.04;52.32;100962.94;5095621;27;20027;-83
2023/07/25 05:53:41;;;;;;;4.82;4.15;;;;;;;28.10;52.06;100967.34;5094186;27;20039;-84
2023/07/25 05:56:07;;;;;;;5.15;4.18;;;;;;;28.06;52.14;100962.91;5088923;27;20050;-85
2023/07/25 05:58:33;;;;;;;5.30;4.28;;;;;;;27.90;52.33;100935.41;5090379;28;20466;-86
2023/07/25 06:00:59;;;;;;;4.95;4.35;;;;;;;27.90;52.17;100928.25;5082662;28;20074;-84
2023/07/25 06:03:25;;;;;;;5.00;4.50;;;;;;;27.63;51.73;100872.28;5081827;28;20024;-82
2023/07/25 06:05:51;;;;;;;4.90;4.10;;;;;;;27.59;51.92;100863.38;5094856;28;20047;-83
2023/07/25 06:08:17;;;;;;;4.50;4.05;;;;;;;27.48;51.79;100842.09;5093479;28;20050;-83
2023/07/25 06:10:43;;;;;;;5.10;4.53;;;;;;;27.55;51.59;100864.34;5094399;28;20036;-84
2023/07/25 06:13:09;;;;;;;4.90;4.40;;;;;;;27.69;51.62;100874.88;5090129;28;20106;-84
2023/07/25 06:15:35;;;;;;;5.25;4.68;;;;;;;27.95;51.66;100930.88;5090221;28;20185;-81
2023/07/25 06:18:04;;;;;;;5.35;4.75;;;;;;;28.05;51.51;100942.38;5090368;28;20724;-84
2023/07/25 06:20:32;;;;;;;5.15;4.55;;;;;;;27.67;51.29;100869.53;5096751;28;20024;-81
2023/07/25 06:22:59;;;;;;;4.90;4.38;;;;;;;27.62;51.52;100868.69;5088947;28;20023;-84
2023/07/25 06:25:25;;;;;;;5.00;4.50;;;;;;;27.74;51.48;100889.09;5091849;28;20024;-83
2023/07/25 06:27:51;;;;;;;5.20;4.60;;;;;;;28.04;51.52;100944.13;5092264;28;20030;-85
2023/07/25 06:30:17;;;;;;;4.97;4.40;;;;;;;27.96;51.54;100928.16;5093095;27;20044;-84
2023/07/25 06:32:43;;;;;;;6.88;5.22;;;;;;;27.96;51.71;100924.56;5089202;28;20404;-84
2023/07/25 06:35:08;;;;;;;5.63;4.90;;;;;;;28.05;51.57;100927.13;5104891;28;20526;-85
2023/07/25 06:37:35;;;;;;;6.45;4.95;;;;;;;27.80;51.58;100897.94;5095998;28;20031;-84
2023/07/25 06:40:03;;;;;;;6.10;5.10;;;;;;;28.02;51.61;100936.13;5100125;28;20020;-85
2023/07/25 06:42:29;;;;;;;6.10;5.20;;;;;;;27.73;51.69;100881.94;5096199;28;20047;-83
2023/07/25 06:44:55;;;;;;;5.05;4.55;;;;;;;27.95;51.65;100921.00;5095868;28;20028;-84
2023/07/25 06:47:21;;;;;;;6.80;4.80;;;;;;;28.04;51.67;100935.22;5109552;27;20089;-85
2023/07/25 06:49:47;;;;;;;5.97;4.95;;;;;;;28.03;51.49;100923.59;5095257;28;20035;-85
2023/07/25 06:52:13;;;;;;;5.72;5.20;;;;;;;28.02;51.46;100930.75;5095122;28;20404;-84
2023/07/25 06:54:40;;;;;;;5.60;4.85;;;;;;;28.01;51.79;100928.09;5093607;28;20027;-84
2023/07/25 06:57:05;;;;;;;6.07;5.28;;;;;;;28.03;51.49;100926.28;5111054;27;20067;-84
2023/07/25 06:59:31;;;;;;;5.57;4.85;;;;;;;27.96;51.56;100921.88;5106096;28;20055;-84
2023/07/25 07:01:57;;;;;;;6.70;5.40;;;;;;;27.79;51.62;100885.44;5095514;28;20485;-85
2023/07/25 07:04:23;;;;;;;6.10;5.30;;;;;;;27.74;51.63;100875.69;5093223;28;20039;-84
2023/07/25 07:06:49;;;;;;;5.82;5.22;;;;;;;27.84;51.60;100893.44;5093447;28;20473;-82
2023/07/25 07:09:15;;;;;;;6.60;5.35;;;;;;;27.41;51.39;100814.47;5077016;28;20553;-85
2023/07/25 07:11:41;;;;;;;7.47;5.22;;;;;;;27.80;51.26;100878.28;5095110;28;20024;-84
2023/07/25 07:14:07;;;;;;;6.20;5.60;;;;;;;27.67;51.64;100857.91;5093321;28;20050;-84
2023/07/25 07:16:33;;;;;;;6.72;5.60;;;;;;;28.04;51.53;100903.88;5079802;28;20027;-84
2023/07/25 07:18:58;;;;;;;7.60;5.30;;;;;;;28.06;51.66;100903.84;5094824;28;20031;-84
2023/07/25 07:21:24;;;;;;;6.72;5.30;;;;;;;27.90;51.74;100874.59;5099037;28;20030;-85
2023/07/25 07:23:50;;;;;;;7.57;5.60;;;;;;;28.04;51.56;100903.88;5092681;28;20066;-85
2023/07/25 07:26:16;;;;;;;6.57;5.13;;;;;;;28.08;51.68;100910.09;5095161;27;20034;-85
2023/07/25 07:28:41;;;;;;;8.13;5.22;;;;;;;27.82;51.29;100880.03;5099326;27;20036;-85
2023/07/25 07:31:09;;;;;;;7.82;5.82;;;;;;;27.75;51.48;100862.25;5101651;27;20055;-84
2023/07/25 07:33:35;;;;;;;6.68;5.38;;;;;;;28.08;51.49;100921.69;5104110;27;20537;-84
2023/07/25 07:36:01;;;;;;;6.03;5.22;;;;;;;27.68;51.16;100848.94;5105519;27;20061;-85
2023/07/25 07:38:30;;;;;;;6.57;5.88;;;;;;;28.10;51.19;100921.69;5107411;27;20058;-85
2023/07/25 07:40:55;;;;;;;6.30;5.38;;;;;;;27.92;51.32;100886.19;5100708;27;20082;-84
2023/07/25 07:43:21;;;;;;;7.85;5.22;;;;;;;28.13;51.21;100910.88;5101894;27;20028;-84
2023/07/25 07:45:48;;;;;;;6.10;5.25;;;;;;;27.78;51.38;100859.50;5107320;27;20036;-85
2023/07/25 07:48:13;;;;;;;5.63;5.03;;;;;;;28.13;51.14;100908.19;5083735;27;20134;-85
2023/07/25 07:50:39;;;;;;;6.63;5.43;;;;;;;28.04;51.13;100906.56;5103637;27;20106;-84
2023/07/25 07:53:05;;;;;;;5.47;4.90;;;;;;;27.85;51.18;100862.09;5105084;27;20101;-86
2023/07/25 07:55:30;;;;;;;5.63;4.93;;;;;;;28.14;51.27;100910.00;5107512;27;20473;-85
2023/07/25 07:57:56;;;;;;;6.53;5.13;;;;;;;27.94;51.34;100865.56;5107164;27;20027;-85
2023/07/25 08:00:23;;;;;;;6.43;5.05;;;;;;;28.00;50.97;100860.09;5106310;28;20047;-85
2023/07/25 08:02:50;;;;;;;6.18;5.25;;;;;;;28.12;51.13;100888.53;5099781;28;20031;-85
2023/07/25 08:05:15;;;;;;;5.80;5.18;;;;;;;27.93;51.16;100849.47;5095301;28;20032;-84
2023/07/25 08:07:41;;;;;;;6.28;5.18;;;;;;;28.15;51.36;100887.59;5098070;27;20039;-85
2023/07/25 08:10:07;;;;;;;5.97;5.20;;;;;;;28.16;51.03;100892.94;5097053;27;20077;-84
2023/07/25 08:12:33;;;;;;;5.43;4.90;;;;;;;28.13;51.15;100893.00;5084862;28;20067;-83
2023/07/25 08:15:00;;;;;;;6.50;5.07;;;;;;;28.14;51.39;100894.75;5101083;28;20078;-86
2023/07/25 08:17:26;;;;;;;6.55;4.82;;;;;;;28.15;51.42;100891.19;5091878;28;20032;-85
2023/07/25 08:19:52;;;;;;;5.80;4.70;;;;;;;27.80;51.17;100832.66;5095775;28;20023;-84
2023/07/25 08:22:17;;;;;;;5.78;4.80;;;;;;;27.90;51.21;100853.09;5094694;28;20508;-85
2023/07/25 08:24:43;;;;;;;6.40;5.45;;;;;;;27.73;51.06;100806.81;5105073;28;20084;-84
2023/07/25 08:27:09;;;;;;;5.85;5.07;;;;;;;27.72;51.31;100816.66;5094238;27;20032;-86
2023/07/25 08:29:53;;;;;;;5.68;4.88;;;;;;;27.93;51.12;100853.03;5099429;28;20527;-86
2023/07/25 08:32:18;;;;;;;5.25;4.75;;;;;;;27.92;51.03;100843.22;5102820;27;20036;-84
2023/07/25 08:34:44;;;;;;;5.65;4.75;;;;;;;28.15;51.06;100874.16;5092734;28;20417;-83
2023/07/25 08:37:10;;;;;;;6.32;5.25;;;;;;;27.95;51.24;100824.38;5094380;28;20401;-84
2023/07/25 08:39:36;;;;;;;6.20;4.95;;;;;;;28.14;51.21;100850.91;5105159;27;20035;-83
2023/07/25 08:42:06;;;;;;;5.28;4.78;;;;;;;27.84;51.28;100786.06;5090372;28;21005;-83
2023/07/25 08:44:34;;;;;;;5.70;4.90;;;;;;;28.20;51.40;100832.03;5077521;28;20035;-83
2023/07/25 08:47:06;;;;;;;5.75;4.90;;;;;;;28.15;51.24;100823.13;5108488;27;20099;-84
2023/07/25 08:49:35;;;;;;;5.20;4.65;;;;;;;28.09;51.16;100809.81;5091804;28;20035;-84
2023/07/25 08:52:03;;;;;;;6.68;5.40;;;;;;;28.17;51.40;100842.78;5091385;28;20063;-83
2023/07/25 08:54:36;;;;;;;5.00;4.35;;;;;;;28.21;51.44;100855.25;5091458;28;20046;-84
2023/07/25 08:57:03;;;;;;;5.65;5.05;;;;;;;28.21;51.21;100866.91;5105180;28;20092;-84
2023/07/25 08:59:30;;;;;;;5.43;4.80;;;;;;;28.22;51.30;100857.03;5098485;28;20062;-85
2023/07/25 09:01:55;;;;;;;6.47;5.22;;;;;;;27.94;51.47;100806.50;5090071;28;20397;-83
2023/07/25 09:04:24;;;;;;;7.40;5.10;;;;;;;28.17;51.73;100837.44;5074001;28;20028;-84
2023/07/25 09:06:50;;;;;;;5.57;4.70;;;;;;;28.15;51.25;100837.47;5095129;28;20019;-83
2023/07/25 09:09:16;;;;;;;5.53;4.95;;;;;;;28.21;51.37;100853.47;5095408;28;20059;-85
2023/07/25 09:11:43;;;;;;;5.43;4.93;;;;;;;28.17;51.34;100843.69;5072444;28;20038;-84
2023/07/25 09:14:08;;;;;;;6.43;5.03;;;;;;;28.10;51.69;100827.72;5092586;28;20024;-84
2023/07/25 09:16:34;;;;;;;5.25;4.75;;;;;;;28.16;51.71;100838.34;5089302;28;20036;-85
2023/07/25 09:19:32;;;;;;;5.03;4.53;;;;;;;28.08;51.76;100819.69;5099537;28;20019;-84
2023/07/25 09:21:58;;;;;;;6.28;5.20;;;;;;;28.09;51.42;100816.09;5093191;28;20028;-85
2023/07/25 09:24:37;;;;;;;5.45;4.72;;;;;;;28.18;51.50;100831.16;5100264;28;20030;-86
2023/07/25 09:27:03;;;;;;;5.00;4.50;;;;;;;28.25;51.63;100830.13;5091984;28;20023;-84
2023/07/25 09:29:30;;;;;;;5.20;4.70;;;;;;;28.26;51.79;100828.31;5091838;28;20086;-85
2023/07/25 09:31:56;;;;;;;6.47;4.90;;;;;;;28.26;51.87;100829.22;5088882;28;20019;-85
2023/07/25 09:34:25;;;;;;;5.15;4.63;;;;;;;27.92;51.68;100768.06;5095561;28;20131;-84
2023/07/25 09:36:51;;;;;;;5.18;4.47;;;;;;;28.31;51.75;100829.13;5099188;27;20051;-85
2023/07/25 09:39:17;;;;;;;5.45;4.82;;;;;;;28.34;51.76;100832.66;5078121;28;20051;-85
2023/07/25 09:41:50;;;;;;;6.00;4.90;;;;;;;28.14;51.79;100806.16;5088189;28;20081;-83
2023/07/25 09:44:16;;;;;;;5.45;4.88;;;;;;;28.07;51.56;100792.84;5082622;28;20123;-84
2023/07/25 09:46:51;;;;;;;5.30;4.80;;;;;;;28.00;51.78;100776.88;5094218;27;20106;-84
2023/07/25 09:49:22;;;;;;;5.55;4.80;;;;;;;28.19;51.83;100803.38;5088495;28;20020;-84
2023/07/25 09:52:00;;;;;;;5.15;4.65;;;;;;;28.06;51.67;100788.41;5087193;28;20024;-84
2023/07/25 09:54:26;;;;;;;5.28;4.63;;;;;;;28.02;51.61;100776.84;5100460;28;20031;-85
2023/07/25 09:56:53;;;;;;;5.45;4.47;;;;;;;28.29;51.71;100821.09;5089141;28;20073;-85
2023/07/25 09:59:18;;;;;;;5.50;4.78;;;;;;;28.28;51.59;100815.75;5079568;28;20024;-84
2023/07/25 10:01:44;;;;;;;5.43;4.70;;;;;;;28.34;51.86;100824.59;5089088;28;20417;-83
2023/07/25 10:04:11;;;;;;;4.82;4.32;;;;;;;28.21;51.64;100794.41;5088969;28;20031;-85
2023/07/25 10:06:37;;;;;;;6.25;4.30;;;;;;;28.28;52.69;100783.50;5100092;28;20027;-85
2023/07/25 10:09:40;;;;;;;5.53;4.13;;;;;;;28.41;52.27;100804.75;5090078;28;20032;-86
2023/07/25 10:12:06;;;;;;;5.13;4.60;;;;;;;28.41;52.28;100807.44;5100515;28;20122;-85
2023/07/25 10:14:37;;;;;;;5.43;4.57;;;;;;;28.10;52.07;100744.50;5075814;28;20062;-86
2023/07/25 10:17:03;;;;;;;5.20;4.63;;;;;;;28.40;51.90;100784.16;5077664;28;20031;-85
2023/07/25 10:19:56;;;;;;;6.43;4.65;;;;;;;28.37;52.09;100778.88;5084616;28;20080;-86
2023/07/25 10:22:37;;;;;;;4.75;4.28;;;;;;;28.46;52.05;100782.28;5078092;28;20020;-88
2023/07/25 10:25:18;;;;;;;4.85;4.35;;;;;;;28.46;52.01;100777.78;5101772;28;20084;-85
2023/07/25 10:27:59;;;;;;;5.35;4.75;;;;;;;27.98;51.95;100691.91;5092738;28;20024;-83
2023/07/25 10:30:27;;;;;;;5.45;4.55;;;;;;;27.91;51.91;100680.41;5099346;28;20398;-87
2023/07/25 10:33:12;;;;;;;4.68;4.28;;;;;;;28.12;52.02;100714.00;5103901;27;20044;-84
2023/07/25 10:36:14;;;;;;;5.40;4.60;;;;;;;27.86;52.00;100665.31;5104511;28;20072;-84
2023/07/25 10:38:49;;;;;;;4.88;4.25;;;;;;;28.50;51.95;100773.28;5101419;28;20032;-89
2023/07/25 10:41:19;;;;;;;5.13;4.30;;;;;;;28.23;51.96;100719.16;5083855;28;20035;-86
2023/07/25 10:43:59;;;;;;;4.95;4.45;;;;;;;28.51;51.97;100767.00;5063307;28;20109;-87
2023/07/25 10:46:33;;;;;;;5.78;4.80;;;;;;;28.28;51.99;100719.97;5083803;28;20093;-88
2023/07/25 10:49:00;;;;;;;4.93;4.43;;;;;;;28.46;52.15;100747.38;5088899;28;20068;-87
2023/07/25 10:51:56;;;;;;;4.38;3.95;;;;;;;28.55;52.14;100761.50;5096498;28;20032;-86
2023/07/25 10:54:51;;;;;;;5.30;4.80;;;;;;;28.55;52.56;100766.00;5080664;28;20032;-86
2023/07/25 10:58:09;;;;;;;5.10;4.60;;;;;;;28.56;52.49;100763.28;5091580;28;20059;-87
2023/07/25 11:00:45;;;;;;;5.15;4.47;;;;;;;28.40;52.30;100732.25;5068299;28;20040;-87
2023/07/25 11:03:37;;;;;;;5.07;4.55;;;;;;;28.59;52.63;100763.22;5091302;28;20042;-86
2023/07/25 11:06:08;;;;;;;5.95;5.25;;;;;;;28.55;52.34;100752.56;5085387;28;20028;-85
2023/07/25 11:08:38;;;;;;;5.57;4.60;;;;;;;28.59;52.69;100751.59;5106102;28;20405;-85
2023/07/25 11:11:04;;;;;;;5.38;4.78;;;;;;;28.62;52.46;100746.19;5082788;28;20489;-85
2023/07/25 11:13:51;;;;;;;5.30;4.78;;;;;;;28.59;52.61;100738.16;5095489;27;20488;-86
2023/07/25 11:16:17;;;;;;;5.15;4.65;;;;;;;28.37;53.07;100700.09;5084070;28;20054;-85
2023/07/25 11:18:52;;;;;;;5.22;4.72;;;;;;;28.10;52.79;100637.09;5095031;28;20058;-85
2023/07/25 11:21:18;;;;;;;5.70;4.78;;;;;;;28.53;52.77;100711.41;5100734;28;20034;-85
2023/07/25 11:23:44;;;;;;;5.57;4.95;;;;;;;28.10;52.71;100637.97;5087471;28;20028;-85
2023/07/25 11:26:12;;;;;;;5.47;4.90;;;;;;;28.35;52.48;100673.25;5095003;28;20085;-86